Time;durP1;ratioP1;P1;durP2;ratioP2;P2;SDS_P1;SDS_P2;PMS_P1;PMS_P2;Temp;Humidity;BMP_temperature;BMP_pressure;BME280_temperature;BME280_humidity;BME280_pressure;Samples;Min_cycle;Max_cycle;Signal;HPM_P1;HPM_P2
2022/01/17 00:00:19;;;;;;;71.93;37.33;;;6.40;99.90;;;;;;5075403;28;20378;-63
2022/01/17 00:02:48;;;;;;;73.32;37.10;;;6.50;99.90;;;;;;5076656;28;20281;-64
2022/01/17 00:05:14;;;;;;;81.88;37.53;;;6.70;99.90;;;;;;5076587;28;20044;-64
2022/01/17 00:07:39;;;;;;;71.00;37.25;;;6.90;99.90;;;;;;5076539;28;20032;-63
2022/01/17 00:10:07;;;;;;;72.93;36.83;;;6.80;99.90;;;;;;5076582;28;20025;-63
2022/01/17 00:12:36;;;;;;;71.32;36.47;;;6.70;99.90;;;;;;5076650;28;20033;-64
2022/01/17 00:15:10;;;;;;;68.53;35.30;;;6.80;99.90;;;;;;5077138;28;20032;-64
2022/01/17 00:17:39;;;;;;;70.60;36.38;;;6.80;99.90;;;;;;5076915;28;20028;-64
2022/01/17 00:20:14;;;;;;;64.25;35.22;;;6.70;99.90;;;;;;5076496;28;20086;-64
2022/01/17 00:22:40;;;;;;;74.00;37.40;;;6.70;99.90;;;;;;5076447;28;20041;-64
2022/01/17 00:25:07;;;;;;;69.28;35.83;;;6.90;99.90;;;;;;5076397;28;20102;-64
2022/01/17 00:27:34;;;;;;;70.57;35.78;;;7.00;99.90;;;;;;5075621;28;20124;-64
2022/01/17 00:30:03;;;;;;;76.68;37.72;;;7.10;99.90;;;;;;5076431;28;20028;-64
2022/01/17 00:32:30;;;;;;;71.18;36.70;;;7.20;99.90;;;;;;5076517;28;20094;-63
2022/01/17 00:34:56;;;;;;;70.65;36.78;;;7.20;99.90;;;;;;5075721;28;20041;-64
2022/01/17 00:37:22;;;;;;;75.80;35.20;;;7.30;99.90;;;;;;5076477;28;20067;-64
2022/01/17 00:39:48;;;;;;;64.93;35.65;;;7.20;99.90;;;;;;5077044;28;20056;-64
2022/01/17 00:42:14;;;;;;;68.50;36.50;;;7.10;99.90;;;;;;5076386;28;20093;-64
2022/01/17 00:44:40;;;;;;;67.50;35.53;;;7.20;99.90;;;;;;5076417;28;20033;-63
2022/01/17 00:47:06;;;;;;;70.55;36.58;;;7.00;99.90;;;;;;5076300;28;20032;-63
2022/01/17 00:49:32;;;;;;;61.08;33.63;;;6.90;99.90;;;;;;5076405;28;20086;-64
2022/01/17 00:51:57;;;;;;;70.30;35.17;;;6.70;99.90;;;;;;5076330;28;20029;-64
2022/01/17 00:54:23;;;;;;;59.97;33.25;;;6.60;99.90;;;;;;5076594;28;20025;-64
2022/01/17 00:56:49;;;;;;;60.13;32.78;;;6.60;99.90;;;;;;5076286;28;20044;-64
2022/01/17 00:59:15;;;;;;;67.88;34.38;;;6.50;99.90;;;;;;5076243;28;20291;-64
2022/01/17 01:01:41;;;;;;;59.53;34.15;;;6.60;99.90;;;;;;5075587;28;20330;-64
2022/01/17 01:04:06;;;;;;;64.07;34.28;;;6.70;99.90;;;;;;5076164;28;20384;-64
2022/01/17 01:06:34;;;;;;;67.10;34.65;;;6.90;99.90;;;;;;5076179;28;20040;-65
2022/01/17 01:09:00;;;;;;;78.18;35.38;;;6.90;99.90;;;;;;5076280;28;20039;-66
2022/01/17 01:11:25;;;;;;;65.03;35.97;;;7.10;99.90;;;;;;5076694;28;20040;-62
2022/01/17 01:13:51;;;;;;;67.35;34.88;;;7.10;99.90;;;;;;5079763;28;20029;-62
2022/01/17 01:19:08;;;;;;;70.20;34.83;;;7.30;99.90;;;;;;5079578;28;20036;-63
2022/01/17 01:29:55;;;;;;;64.07;34.25;;;7.20;99.90;;;;;;5079440;28;20043;-64
2022/01/17 01:32:24;;;;;;;68.13;34.33;;;7.30;99.90;;;;;;5079403;28;20064;-64
2022/01/17 01:34:53;;;;;;;63.33;34.97;;;7.20;99.90;;;;;;5079201;28;20056;-63
2022/01/17 01:37:19;;;;;;;71.22;35.65;;;7.30;99.90;;;;;;5079237;28;20036;-63
2022/01/17 01:39:50;;;;;;;65.72;34.72;;;7.30;99.90;;;;;;5079224;28;20392;-64
2022/01/17 01:42:18;;;;;;;72.25;35.22;;;7.20;99.90;;;;;;5078455;28;20040;-63
2022/01/17 01:44:48;;;;;;;66.90;35.58;;;7.20;99.90;;;;;;5079085;28;20411;-64
2022/01/17 01:47:14;;;;;;;60.70;33.33;;;7.20;99.90;;;;;;5078962;28;20128;-64
2022/01/17 01:49:40;;;;;;;58.88;33.42;;;7.00;99.90;;;;;;5079110;28;20108;-64
2022/01/17 01:52:06;;;;;;;60.28;32.92;;;7.00;99.90;;;;;;5079005;28;20025;-64
2022/01/17 01:54:32;;;;;;;62.47;32.95;;;6.90;99.90;;;;;;5078950;28;20033;-63
2022/01/17 01:56:58;;;;;;;65.07;33.83;;;6.80;99.90;;;;;;5078889;28;20090;-63
2022/01/17 01:59:25;;;;;;;59.88;33.53;;;6.80;99.90;;;;;;5079126;28;20343;-63
2022/01/17 02:01:51;;;;;;;60.28;34.05;;;6.80;99.90;;;;;;5078852;28;20273;-63
2022/01/17 02:04:17;;;;;;;59.10;33.15;;;6.80;99.90;;;;;;5078769;28;20025;-63
2022/01/17 02:06:43;;;;;;;61.08;34.40;;;7.00;99.90;;;;;;5077979;28;20052;-63
2022/01/17 02:09:10;;;;;;;63.60;33.55;;;6.90;99.90;;;;;;5078660;28;20032;-64
2022/01/17 02:11:36;;;;;;;67.25;34.78;;;7.00;99.90;;;;;;5078638;28;20048;-64
2022/01/17 02:14:03;;;;;;;60.92;33.30;;;7.00;99.90;;;;;;5078547;28;20029;-64
2022/01/17 02:16:29;;;;;;;62.83;34.47;;;7.10;99.90;;;;;;5078539;28;20396;-63
2022/01/17 02:18:55;;;;;;;58.65;33.75;;;7.20;99.90;;;;;;5078329;28;20025;-64
2022/01/17 02:21:33;;;;;;;65.15;33.97;;;7.30;99.90;;;;;;5078378;28;20050;-64
2022/01/17 02:24:01;;;;;;;63.38;34.30;;;7.20;99.90;;;;;;5077933;28;20056;-64
2022/01/17 02:26:28;;;;;;;66.00;35.08;;;7.30;99.90;;;;;;5078303;28;20072;-64
2022/01/17 02:28:55;;;;;;;65.07;33.78;;;7.40;99.90;;;;;;5078285;28;20029;-64
2022/01/17 02:31:23;;;;;;;71.10;34.83;;;7.40;99.90;;;;;;5077518;28;20025;-64
2022/01/17 02:33:53;;;;;;;66.43;34.33;;;7.40;99.90;;;;;;5078063;28;20020;-65
2022/01/17 02:36:20;;;;;;;67.38;34.58;;;7.30;99.90;;;;;;5077525;28;20137;-64
2022/01/17 02:38:46;;;;;;;66.25;35.38;;;7.20;99.90;;;;;;5078048;28;20036;-64
2022/01/17 02:41:12;;;;;;;67.28;33.70;;;7.30;99.90;;;;;;5078086;28;20067;-64
2022/01/17 02:43:38;;;;;;;62.63;33.47;;;7.20;99.90;;;;;;5078065;28;20028;-64
2022/01/17 02:48:38;;;;;;;59.35;32.95;;;7.20;99.90;;;;;;5077924;28;20097;-64
2022/01/17 02:51:04;;;;;;;59.90;32.53;;;7.20;99.90;;;;;;5077908;28;20303;-64
2022/01/17 02:53:32;;;;;;;56.53;31.90;;;7.20;99.90;;;;;;5077743;28;20063;-64
2022/01/17 02:56:04;;;;;;;57.95;32.67;;;7.10;99.90;;;;;;5078347;28;20028;-64
2022/01/17 02:58:34;;;;;;;60.92;32.80;;;7.20;99.90;;;;;;5077840;28;20067;-64
2022/01/17 03:01:06;;;;;;;61.15;31.35;;;7.00;99.90;;;;;;5077702;28;20056;-64
2022/01/17 03:03:32;;;;;;;58.83;33.03;;;6.90;99.90;;;;;;5076843;28;20032;-64
2022/01/17 03:05:59;;;;;;;58.85;32.58;;;6.90;99.90;;;;;;5077498;28;20027;-64
2022/01/17 03:08:28;;;;;;;63.17;32.50;;;7.00;99.90;;;;;;5077486;28;20028;-64
2022/01/17 03:10:55;;;;;;;56.00;31.55;;;6.90;99.90;;;;;;5078046;28;20395;-64
2022/01/17 03:13:26;;;;;;;57.10;32.30;;;7.00;99.90;;;;;;5077423;28;20032;-64
2022/01/17 03:15:56;;;;;;;56.45;30.98;;;7.20;99.90;;;;;;5077458;28;20115;-64
2022/01/17 03:18:23;;;;;;;59.25;31.65;;;7.20;99.90;;;;;;5077316;28;20146;-65
2022/01/17 03:20:49;;;;;;;62.25;32.55;;;7.10;99.90;;;;;;5077319;28;20036;-64
2022/01/17 03:23:15;;;;;;;56.20;32.25;;;7.20;99.90;;;;;;5059941;28;20024;-64
2022/01/17 03:25:41;;;;;;;57.67;31.50;;;7.20;99.90;;;;;;5077151;28;20044;-64
2022/01/17 03:28:07;;;;;;;56.20;31.42;;;7.10;99.90;;;;;;5076361;28;20036;-64
2022/01/17 03:30:33;;;;;;;61.03;32.88;;;7.00;99.90;;;;;;5076409;28;20296;-64
2022/01/17 03:33:01;;;;;;;58.92;32.35;;;7.10;99.90;;;;;;5077464;28;20032;-64
2022/01/17 03:35:27;;;;;;;58.22;30.58;;;7.10;99.90;;;;;;5076277;28;20301;-64
2022/01/17 03:37:53;;;;;;;57.67;33.05;;;7.20;99.90;;;;;;5076996;28;20052;-64
2022/01/17 03:40:18;;;;;;;60.00;32.78;;;7.30;99.90;;;;;;5077081;28;20062;-64
2022/01/17 03:42:44;;;;;;;58.90;33.60;;;7.20;99.90;;;;;;5076365;28;20042;-64
2022/01/17 03:45:11;;;;;;;59.03;32.00;;;7.30;99.90;;;;;;5077002;28;20037;-64
2022/01/17 03:47:39;;;;;;;59.95;33.75;;;7.40;99.90;;;;;;5076852;28;20036;-64
2022/01/17 03:50:09;;;;;;;59.65;33.47;;;7.40;99.90;;;;;;5076906;28;20154;-64
2022/01/17 03:52:35;;;;;;;56.13;32.00;;;7.30;99.90;;;;;;5077197;28;20470;-64
2022/01/17 03:55:01;;;;;;;55.78;31.95;;;7.20;99.90;;;;;;5077007;28;20032;-64
2022/01/17 03:57:27;;;;;;;56.38;33.28;;;7.30;99.90;;;;;;5077065;28;20047;-64
2022/01/17 03:59:52;;;;;;;58.83;33.28;;;7.30;99.90;;;;;;5076845;28;20028;-64
2022/01/17 04:02:18;;;;;;;56.08;32.50;;;7.30;99.90;;;;;;5076785;28;20032;-64
2022/01/17 04:04:44;;;;;;;55.95;31.48;;;7.30;99.90;;;;;;5076091;28;20407;-64
2022/01/17 04:07:10;;;;;;;52.45;31.45;;;7.10;99.90;;;;;;5075904;28;20047;-64
2022/01/17 04:09:35;;;;;;;56.90;31.60;;;7.20;99.90;;;;;;5076982;28;20512;-64
2022/01/17 04:12:02;;;;;;;54.15;31.63;;;7.20;99.90;;;;;;5076712;28;20036;-64
2022/01/17 04:14:27;;;;;;;53.70;30.35;;;7.20;99.90;;;;;;5076703;28;20047;-64
2022/01/17 04:16:53;;;;;;;49.58;30.70;;;7.10;99.90;;;;;;5077323;28;20335;-64
2022/01/17 04:19:20;;;;;;;56.58;30.35;;;6.80;99.90;;;;;;5075929;28;20024;-64
2022/01/17 04:21:47;;;;;;;55.60;30.35;;;6.50;99.90;;;;;;5076782;28;20029;-64
2022/01/17 04:24:14;;;;;;;58.53;31.65;;;6.40;99.90;;;;;;5076558;28;20443;-64
2022/01/17 04:26:42;;;;;;;54.00;31.05;;;6.40;99.90;;;;;;5075846;28;20094;-64
2022/01/17 04:29:08;;;;;;;50.17;30.63;;;6.40;99.90;;;;;;5076501;28;20090;-64
2022/01/17 04:31:34;;;;;;;56.65;31.55;;;6.30;99.90;;;;;;5076697;28;20024;-65
2022/01/17 04:34:00;;;;;;;55.95;32.38;;;6.20;99.90;;;;;;5075548;28;20037;-64
2022/01/17 04:36:27;;;;;;;55.58;32.10;;;6.10;99.90;;;;;;5076525;28;20040;-64
2022/01/17 04:38:53;;;;;;;52.40;30.85;;;6.10;99.90;;;;;;5075739;28;20032;-64
2022/01/17 04:41:21;;;;;;;58.92;32.72;;;6.00;99.90;;;;;;5077000;28;20040;-64
2022/01/17 04:46:16;;;;;;;58.03;32.33;;;6.10;99.90;;;;;;5078500;28;20036;-64
2022/01/17 04:48:42;;;;;;;59.47;33.10;;;6.00;99.90;;;;;;5080197;28;20029;-64
2022/01/17 04:51:08;;;;;;;59.17;32.08;;;6.00;99.90;;;;;;5080169;28;20028;-63
2022/01/17 04:53:34;;;;;;;57.47;31.50;;;5.90;99.90;;;;;;5079960;28;20047;-64
2022/01/17 04:56:00;;;;;;;61.63;32.42;;;5.80;99.90;;;;;;5080014;28;20059;-64
2022/01/17 04:58:26;;;;;;;62.28;33.45;;;5.70;99.90;;;;;;5079186;28;20032;-64
2022/01/17 05:00:52;;;;;;;60.25;32.95;;;5.70;99.90;;;;;;5079918;28;20118;-64
2022/01/17 05:03:21;;;;;;;57.75;31.65;;;5.60;99.90;;;;;;5079055;28;20415;-64
2022/01/17 05:05:47;;;;;;;60.25;32.70;;;5.50;99.90;;;;;;5079778;28;20037;-65
2022/01/17 05:08:14;;;;;;;57.95;32.55;;;5.60;99.90;;;;;;5079132;28;20102;-65
2022/01/17 05:10:46;;;;;;;54.08;32.00;;;5.70;99.90;;;;;;5079859;28;20380;-65
2022/01/17 05:13:18;;;;;;;62.05;34.65;;;5.70;99.90;;;;;;5079774;28;20372;-65
2022/01/17 05:15:50;;;;;;;66.28;33.70;;;5.70;99.90;;;;;;5079762;28;20052;-65
2022/01/17 05:19:48;;;;;;;66.80;34.65;;;5.80;99.90;;;;;;5079582;28;20044;-65
2022/01/17 05:21:12;;;;;;;60.45;34.00;;;5.80;99.90;;;;;;5080153;28;20342;-65
2022/01/17 05:23:40;;;;;;;59.85;34.10;;;5.70;99.90;;;;;;5079668;28;20029;-65
2022/01/17 05:26:06;;;;;;;62.90;34.38;;;5.70;99.90;;;;;;5079693;28;20411;-65
2022/01/17 05:28:32;;;;;;;69.93;34.65;;;5.70;99.90;;;;;;5079662;28;20033;-65
2022/01/17 05:30:58;;;;;;;58.45;33.92;;;5.70;99.90;;;;;;5079441;28;20043;-65
2022/01/17 05:33:24;;;;;;;62.35;34.35;;;5.80;99.90;;;;;;5079514;28;20423;-65
2022/01/17 05:35:50;;;;;;;63.95;34.17;;;5.90;99.90;;;;;;5079269;28;20083;-65
2022/01/17 05:38:15;;;;;;;59.10;33.35;;;5.70;99.90;;;;;;5079278;28;20068;-65
2022/01/17 05:40:42;;;;;;;58.20;34.30;;;5.60;99.90;;;;;;5079272;28;20075;-65
2022/01/17 05:43:08;;;;;;;64.82;34.15;;;5.60;99.90;;;;;;5079363;28;20308;-65
2022/01/17 05:45:34;;;;;;;59.63;34.15;;;5.70;99.90;;;;;;5078259;28;20017;-65
2022/01/17 05:48:00;;;;;;;64.00;34.15;;;5.80;99.90;;;;;;5079036;28;20461;-65
2022/01/17 05:50:26;;;;;;;67.22;34.70;;;5.90;99.90;;;;;;5079113;28;20040;-65
2022/01/17 05:52:51;;;;;;;73.90;35.20;;;6.00;99.90;;;;;;5079336;28;20036;-65
2022/01/17 05:55:17;;;;;;;62.10;34.08;;;6.10;99.90;;;;;;5078968;28;20296;-65
2022/01/17 05:57:44;;;;;;;55.42;33.25;;;6.10;99.90;;;;;;5078083;28;20427;-65
2022/01/17 06:00:13;;;;;;;66.57;33.60;;;6.10;99.90;;;;;;5078877;28;20040;-65
2022/01/17 06:02:39;;;;;;;59.28;33.30;;;6.10;99.90;;;;;;5078900;28;20342;-66
2022/01/17 06:05:06;;;;;;;64.38;34.40;;;6.30;99.90;;;;;;5078296;28;20041;-66
2022/01/17 06:07:31;;;;;;;63.58;34.13;;;6.20;99.90;;;;;;5078614;28;20072;-65
2022/01/17 06:09:57;;;;;;;60.00;35.20;;;6.30;99.90;;;;;;5078032;28;20422;-65
2022/01/17 06:12:23;;;;;;;66.72;34.60;;;6.30;99.90;;;;;;5078000;28;20043;-67
2022/01/17 06:14:49;;;;;;;67.65;36.05;;;6.50;99.90;;;;;;5078573;28;20329;-66
2022/01/17 06:17:15;;;;;;;66.40;35.17;;;6.70;99.90;;;;;;5077852;28;20326;-66
2022/01/17 06:19:40;;;;;;;62.25;35.45;;;6.60;99.90;;;;;;5061198;28;20311;-66
2022/01/17 06:22:07;;;;;;;62.22;35.42;;;6.60;99.90;;;;;;5061610;28;20136;-66
2022/01/17 06:24:33;;;;;;;65.53;36.33;;;6.70;99.90;;;;;;5077663;28;20315;-66
2022/01/17 06:26:59;;;;;;;61.70;35.67;;;6.70;99.90;;;;;;5078101;28;20040;-66
2022/01/17 06:29:25;;;;;;;70.45;35.92;;;6.80;99.90;;;;;;5078300;28;20028;-66
2022/01/17 06:31:51;;;;;;;69.10;35.47;;;6.90;99.90;;;;;;5078258;28;20024;-66
2022/01/17 06:34:17;;;;;;;62.45;35.72;;;7.00;99.90;;;;;;5077951;28;20060;-66
2022/01/17 06:36:43;;;;;;;61.95;35.30;;;6.90;99.90;;;;;;5078134;28;20391;-66
2022/01/17 06:39:12;;;;;;;65.10;37.55;;;6.90;99.90;;;;;;5077968;28;20435;-66
2022/01/17 06:41:39;;;;;;;67.20;37.85;;;6.90;99.90;;;;;;5078036;28;20036;-66
2022/01/17 06:44:05;;;;;;;70.75;36.70;;;6.90;99.90;;;;;;5077940;28;20092;-66
2022/01/17 06:46:31;;;;;;;71.00;38.17;;;6.90;99.90;;;;;;5077886;28;20097;-67
2022/01/17 06:48:57;;;;;;;63.90;35.50;;;7.10;99.90;;;;;;5077888;28;20315;-65
2022/01/17 06:51:23;;;;;;;64.35;36.85;;;7.00;99.90;;;;;;5077897;28;20043;-66
2022/01/17 06:53:50;;;;;;;67.60;35.22;;;7.00;99.90;;;;;;5077771;28;20024;-66
2022/01/17 06:56:16;;;;;;;59.40;33.78;;;7.10;99.90;;;;;;5077089;28;20029;-66
2022/01/17 06:58:44;;;;;;;64.57;34.80;;;7.20;99.90;;;;;;5076786;28;20036;-66
2022/01/17 07:01:10;;;;;;;62.38;34.22;;;7.10;99.90;;;;;;5078466;28;20309;-64
2022/01/17 07:03:37;;;;;;;60.13;35.10;;;7.10;99.90;;;;;;5077490;28;20046;-64
2022/01/17 07:06:03;;;;;;;56.83;34.63;;;7.10;99.90;;;;;;5076876;28;20051;-64
2022/01/17 07:08:29;;;;;;;64.45;34.05;;;7.30;99.90;;;;;;5077459;28;20292;-64
2022/01/17 07:10:55;;;;;;;53.08;32.97;;;7.30;99.90;;;;;;5077624;28;20389;-64
2022/01/17 07:13:21;;;;;;;62.42;34.00;;;7.10;99.90;;;;;;5076939;28;20036;-65
2022/01/17 07:15:48;;;;;;;58.67;32.47;;;7.10;99.90;;;;;;5076604;28;20115;-65
2022/01/17 07:18:14;;;;;;;61.92;33.97;;;7.10;99.90;;;;;;5076507;28;20445;-64
2022/01/17 07:20:40;;;;;;;51.67;30.60;;;7.00;99.90;;;;;;5077290;28;20056;-64
2022/01/17 07:23:06;;;;;;;49.92;29.75;;;7.10;99.90;;;;;;5077258;28;20384;-64
2022/01/17 07:25:32;;;;;;;48.30;28.40;;;7.30;99.90;;;;;;5077153;28;20043;-65
2022/01/17 07:27:58;;;;;;;50.65;29.17;;;7.50;99.90;;;;;;5076692;28;20434;-65
2022/01/17 07:30:26;;;;;;;54.08;26.88;;;7.60;99.90;;;;;;5076404;28;20036;-65
2022/01/17 07:32:52;;;;;;;42.10;25.42;;;7.60;99.90;;;;;;5076296;28;20300;-65
2022/01/17 07:35:18;;;;;;;42.28;24.10;;;7.60;99.90;;;;;;5076207;28;20170;-65
2022/01/17 07:37:44;;;;;;;41.70;23.73;;;7.80;99.90;;;;;;5076949;28;20072;-65
2022/01/17 07:40:11;;;;;;;40.80;23.02;;;7.70;99.90;;;;;;5076496;28;20298;-64
2022/01/17 07:42:37;;;;;;;35.72;20.75;;;7.90;99.90;;;;;;5076263;28;20036;-63
2022/01/17 07:45:11;;;;;;;36.30;18.45;;;7.90;99.90;;;;;;5077152;28;20032;-63
2022/01/17 07:50:24;;;;;;;35.65;19.00;;;8.10;99.90;;;;;;5077078;28;20029;-66
2022/01/17 07:52:52;;;;;;;36.70;20.08;;;8.10;99.90;;;;;;5076288;28;20047;-64
2022/01/17 07:55:19;;;;;;;32.65;20.20;;;7.90;99.90;;;;;;5076430;28;20475;-66
2022/01/17 07:57:46;;;;;;;35.92;21.10;;;7.90;99.90;;;;;;5076867;28;20036;-64
2022/01/17 08:00:22;;;;;;;42.35;21.23;;;7.90;99.90;;;;;;5077141;28;20029;-64
2022/01/17 08:02:53;;;;;;;38.97;20.38;;;8.00;99.90;;;;;;5077136;28;20333;-64
2022/01/17 08:05:19;;;;;;;33.78;19.77;;;7.90;99.90;;;;;;5075878;28;20032;-64
2022/01/17 08:07:46;;;;;;;34.75;18.77;;;7.80;99.90;;;;;;5076595;28;20090;-61
2022/01/17 08:10:12;;;;;;;38.70;19.38;;;7.80;99.90;;;;;;5075850;28;20016;-64
2022/01/17 08:12:43;;;;;;;33.95;19.63;;;7.70;99.90;;;;;;5076569;28;20021;-64
2022/01/17 08:15:11;;;;;;;35.90;19.55;;;7.60;99.90;;;;;;5076607;28;20024;-65
2022/01/17 08:17:37;;;;;;;37.45;18.00;;;7.60;99.90;;;;;;5075729;28;20067;-64
2022/01/17 08:20:04;;;;;;;40.90;18.90;;;7.80;99.90;;;;;;5076884;28;20311;-64
2022/01/17 08:22:30;;;;;;;36.45;17.85;;;7.80;99.90;;;;;;5080705;28;20234;-64
2022/01/17 08:24:56;;;;;;;31.13;16.67;;;8.00;99.90;;;;;;5079949;28;20067;-65
2022/01/17 08:27:21;;;;;;;30.38;17.50;;;8.10;99.90;;;;;;5080423;28;20404;-65
2022/01/17 08:29:47;;;;;;;35.10;17.33;;;8.00;99.90;;;;;;5079654;28;20070;-65
2022/01/17 08:32:13;;;;;;;35.80;17.88;;;8.00;99.90;;;;;;5080318;28;20116;-64
2022/01/17 08:34:39;;;;;;;32.50;17.95;;;8.20;99.90;;;;;;5080261;28;20084;-63
2022/01/17 08:37:05;;;;;;;32.47;17.23;;;8.10;99.90;;;;;;5080306;28;20459;-63
2022/01/17 08:39:31;;;;;;;31.95;17.33;;;8.20;99.90;;;;;;5080327;28;20041;-64
2022/01/17 08:41:58;;;;;;;33.55;17.98;;;8.30;99.90;;;;;;5080189;28;20044;-65
2022/01/17 08:44:25;;;;;;;33.85;16.17;;;8.10;99.90;;;;;;5080172;28;20040;-64
2022/01/17 08:46:51;;;;;;;30.77;16.48;;;8.10;99.90;;;;;;5080094;28;20037;-64
2022/01/17 08:49:17;;;;;;;32.55;16.65;;;8.00;99.90;;;;;;5079998;28;20086;-65
2022/01/17 08:51:44;;;;;;;30.67;14.90;;;7.90;99.90;;;;;;5079852;28;20043;-65
2022/01/17 08:54:10;;;;;;;32.92;13.70;;;7.80;99.90;;;;;;5080055;28;20400;-64
2022/01/17 08:56:36;;;;;;;33.20;13.85;;;7.80;99.90;;;;;;5079118;28;20101;-64
2022/01/17 08:59:02;;;;;;;31.50;12.32;;;7.80;99.90;;;;;;5079145;28;20032;-64
2022/01/17 09:01:29;;;;;;;30.75;12.10;;;7.70;99.90;;;;;;5079978;28;20396;-65
2022/01/17 09:03:55;;;;;;;27.02;11.13;;;7.70;99.90;;;;;;5079701;28;20438;-64
2022/01/17 09:06:23;;;;;;;27.27;10.65;;;7.80;99.90;;;;;;5079646;28;20037;-63
2022/01/17 09:08:49;;;;;;;31.15;10.88;;;7.90;99.90;;;;;;5079610;28;20111;-64
2022/01/17 09:11:15;;;;;;;24.00;9.15;;;7.80;99.90;;;;;;5079673;28;20069;-63
2022/01/17 09:13:41;;;;;;;21.85;9.00;;;7.90;99.90;;;;;;5079747;28;20032;-64
2022/01/17 09:16:08;;;;;;;20.65;8.15;;;7.90;99.90;;;;;;5078846;28;20303;-64
2022/01/17 09:18:34;;;;;;;17.60;8.02;;;7.80;99.90;;;;;;5079460;28;20376;-65
2022/01/17 09:21:00;;;;;;;27.80;8.82;;;8.00;99.90;;;;;;5079775;28;20210;-63
2022/01/17 09:23:26;;;;;;;27.77;8.25;;;8.10;99.90;;;;;;5078686;28;20025;-64
2022/01/17 09:25:52;;;;;;;28.30;8.48;;;8.30;99.90;;;;;;5079414;28;20086;-64
2022/01/17 09:28:18;;;;;;;29.52;8.10;;;8.30;99.90;;;;;;5079383;28;20032;-63
2022/01/17 09:30:44;;;;;;;24.77;8.57;;;8.40;99.90;;;;;;5078690;28;20024;-64
2022/01/17 09:33:10;;;;;;;24.50;7.63;;;8.40;99.90;;;;;;5078109;28;20506;-64
2022/01/17 09:35:36;;;;;;;19.95;7.40;;;8.50;99.90;;;;;;5079134;28;20052;-65
2022/01/17 09:38:03;;;;;;;27.52;8.73;;;8.40;99.90;;;;;;5079446;28;20066;-62
2022/01/17 09:40:29;;;;;;;28.58;8.10;;;8.50;99.90;;;;;;5079332;28;20039;-62
2022/01/17 09:42:58;;;;;;;21.27;8.00;;;8.50;99.90;;;;;;5078615;28;20089;-64
2022/01/17 09:45:24;;;;;;;28.92;8.13;;;8.40;99.90;;;;;;5079153;28;20040;-64
2022/01/17 09:47:50;;;;;;;21.88;7.78;;;8.50;99.90;;;;;;5078265;28;20032;-65
2022/01/17 09:50:21;;;;;;;28.08;8.32;;;8.50;99.90;;;;;;5079562;28;20086;-64
2022/01/17 09:52:52;;;;;;;24.50;8.18;;;8.60;99.90;;;;;;5079212;28;20043;-65
2022/01/17 09:55:26;;;;;;;24.05;8.23;;;8.80;99.90;;;;;;5079082;28;20040;-66
2022/01/17 09:57:53;;;;;;;22.10;7.20;;;8.50;99.90;;;;;;5079434;28;20068;-61
2022/01/17 10:00:26;;;;;;;25.83;7.32;;;8.70;99.90;;;;;;5078851;28;20063;-65
2022/01/17 10:02:55;;;;;;;21.95;8.13;;;8.70;99.90;;;;;;5079196;28;20327;-64
2022/01/17 10:05:22;;;;;;;26.17;8.23;;;8.70;99.90;;;;;;5078794;28;20079;-64
2022/01/17 10:07:53;;;;;;;18.33;7.13;;;8.80;99.90;;;;;;5078592;28;20063;-64
2022/01/17 10:11:00;;;;;;;23.92;7.75;;;8.90;99.90;;;;;;5078732;28;20062;-64
2022/01/17 10:13:37;;;;;;;22.90;7.45;;;9.10;99.90;;;;;;5078650;28;20032;-64
2022/01/17 10:16:20;;;;;;;23.75;7.93;;;9.10;99.90;;;;;;5077908;28;20082;-65
2022/01/17 10:19:00;;;;;;;22.73;7.38;;;9.10;99.90;;;;;;5078005;28;20037;-67
2022/01/17 10:21:42;;;;;;;25.08;6.70;;;9.20;99.90;;;;;;5078695;28;20024;-62
2022/01/17 10:24:23;;;;;;;19.95;6.47;;;9.40;99.90;;;;;;5078384;28;20028;-64
2022/01/17 10:35:17;;;;;;;21.58;7.05;;;9.10;99.90;;;;;;5078117;28;20040;-66
2022/01/17 10:38:03;;;;;;;19.48;6.50;;;9.20;99.90;;;;;;5078122;28;20041;-63
2022/01/17 10:40:39;;;;;;;18.85;6.80;;;9.00;99.90;;;;;;5077882;28;20068;-63
2022/01/17 10:43:17;;;;;;;20.05;6.40;;;9.10;99.90;;;;;;5060239;28;20315;-64
2022/01/17 10:45:43;;;;;;;23.90;6.75;;;9.20;99.90;;;;;;5077223;28;20064;-62
2022/01/17 10:48:09;;;;;;;17.58;6.68;;;9.40;99.90;;;;;;5078117;28;20020;-63
2022/01/17 10:50:38;;;;;;;23.30;7.20;;;9.50;99.90;;;;;;5077042;28;20028;-64
2022/01/17 10:53:11;;;;;;;20.20;6.63;;;9.50;99.90;;;;;;5077772;28;20024;-64
2022/01/17 10:55:45;;;;;;;32.00;7.30;;;9.50;99.90;;;;;;5077820;28;20032;-64
2022/01/17 10:58:20;;;;;;;19.13;6.00;;;9.60;99.90;;;;;;5077822;28;20387;-64
2022/01/17 11:00:51;;;;;;;23.63;6.20;;;9.70;99.90;;;;;;5077653;28;20090;-64
2022/01/17 11:03:21;;;;;;;20.40;6.20;;;9.60;99.90;;;;;;5077697;28;20033;-64
2022/01/17 11:05:52;;;;;;;18.42;5.53;;;9.50;99.90;;;;;;5077575;28;20111;-63
2022/01/17 11:08:20;;;;;;;17.25;6.22;;;9.60;99.90;;;;;;5077774;28;20036;-64
2022/01/17 11:10:50;;;;;;;20.20;5.53;;;9.60;99.90;;;;;;5076767;28;20036;-64
2022/01/17 11:13:18;;;;;;;17.25;5.90;;;9.60;99.90;;;;;;5077736;28;20064;-65
2022/01/17 11:15:46;;;;;;;17.42;5.60;;;9.70;99.90;;;;;;5077565;28;20070;-65
2022/01/17 11:18:22;;;;;;;17.88;5.90;;;9.70;99.90;;;;;;5077745;28;20028;-64
2022/01/17 11:20:55;;;;;;;19.73;5.72;;;9.90;99.90;;;;;;5077821;28;20043;-62
2022/01/17 11:23:22;;;;;;;15.55;5.15;;;9.80;99.90;;;;;;5077584;28;20283;-64
2022/01/17 11:25:53;;;;;;;15.30;5.63;;;9.90;99.90;;;;;;5077302;28;20437;-62
2022/01/17 11:28:22;;;;;;;18.17;5.10;;;10.00;99.90;;;;;;5077264;28;20036;-64
2022/01/17 11:30:50;;;;;;;17.77;4.90;;;10.00;99.90;;;;;;5077540;28;20024;-65
2022/01/17 11:33:16;;;;;;;18.33;5.75;;;10.10;99.90;;;;;;5077016;28;20029;-63
2022/01/17 11:35:44;;;;;;;15.68;4.95;;;10.10;99.90;;;;;;5076944;28;20169;-64
2022/01/17 11:38:13;;;;;;;20.42;4.72;;;10.20;99.90;;;;;;5076924;28;20048;-65
2022/01/17 11:40:42;;;;;;;21.38;4.93;;;10.40;99.90;;;;;;5077045;28;20059;-66
2022/01/17 11:43:19;;;;;;;14.80;4.35;;;10.30;99.90;;;;;;5076247;28;20037;-63
2022/01/17 11:45:45;;;;;;;13.15;4.53;;;10.20;99.90;;;;;;5076178;28;20126;-63
2022/01/17 11:48:30;;;;;;;20.05;4.88;;;10.20;99.90;;;;;;5076821;28;20040;-64
2022/01/17 11:50:59;;;;;;;15.30;4.70;;;10.40;99.90;;;;;;5076958;28;20029;-64
2022/01/17 11:53:27;;;;;;;17.67;4.53;;;10.60;99.90;;;;;;5076842;28;20025;-62
2022/01/17 11:55:54;;;;;;;18.33;5.25;;;10.50;99.90;;;;;;5076465;28;20020;-64
2022/01/17 11:58:39;;;;;;;20.95;5.95;;;10.50;99.90;;;;;;5075979;28;20119;-61
2022/01/17 12:01:04;;;;;;;14.20;4.85;;;10.50;99.90;;;;;;5076877;28;20032;-62
2022/01/17 12:03:45;;;;;;;22.45;6.00;;;10.60;99.90;;;;;;5076898;28;20055;-63
2022/01/17 12:06:20;;;;;;;19.92;6.18;;;10.40;99.90;;;;;;5077006;28;20052;-64
2022/01/17 12:08:47;;;;;;;19.35;5.20;;;10.40;99.90;;;;;;5076764;28;20025;-64
2022/01/17 12:11:28;;;;;;;18.92;4.72;;;10.60;99.90;;;;;;5075987;28;20081;-63
2022/01/17 12:13:59;;;;;;;21.05;5.38;;;10.80;99.90;;;;;;5076583;28;20391;-63
2022/01/17 12:16:28;;;;;;;15.85;3.83;;;10.90;99.90;;;;;;5076669;28;20082;-63
2022/01/17 12:18:59;;;;;;;18.77;4.43;;;11.00;99.90;;;;;;5075918;28;20386;-64
2022/01/17 12:21:32;;;;;;;16.25;4.50;;;10.80;99.90;;;;;;5076225;28;20036;-63
2022/01/17 12:24:16;;;;;;;21.92;5.07;;;10.80;99.90;;;;;;5076576;28;20034;-62
2022/01/17 12:27:03;;;;;;;13.35;4.00;;;10.70;99.90;;;;;;5075662;28;20097;-62
2022/01/17 12:30:02;;;;;;;14.70;3.92;;;10.60;99.90;;;;;;5077220;28;20024;-64
2022/01/17 12:32:29;;;;;;;16.92;4.45;;;10.40;99.90;;;;;;5075879;28;20037;-64
2022/01/17 12:35:07;;;;;;;16.70;4.57;;;10.40;99.90;;;;;;5075676;28;20068;-65
2022/01/17 12:38:07;;;;;;;18.33;4.57;;;10.60;99.90;;;;;;5075816;28;20032;-63
2022/01/17 12:40:34;;;;;;;17.63;4.40;;;10.70;99.90;;;;;;5076214;28;20040;-64
2022/01/17 12:43:09;;;;;;;21.05;5.00;;;10.90;99.90;;;;;;5076424;28;20113;-63
2022/01/17 12:45:59;;;;;;;17.02;4.32;;;11.00;99.90;;;;;;5076288;28;20033;-63
2022/01/17 12:48:26;;;;;;;25.48;4.47;;;11.10;99.90;;;;;;5076434;28;20296;-66
2022/01/17 12:50:54;;;;;;;20.13;3.72;;;11.00;99.90;;;;;;5075756;28;20029;-65
2022/01/17 12:53:25;;;;;;;20.65;3.95;;;10.90;99.90;;;;;;5076784;28;20392;-66
2022/01/17 12:55:54;;;;;;;15.40;3.47;;;10.70;99.90;;;;;;5076322;28;20076;-63
2022/01/17 12:58:24;;;;;;;14.45;3.45;;;10.80;99.90;;;;;;5076322;28;20032;-64
2022/01/17 13:00:52;;;;;;;14.57;3.75;;;10.90;99.90;;;;;;5076362;28;20032;-64
2022/01/17 13:03:19;;;;;;;16.23;4.07;;;11.00;99.90;;;;;;5076304;28;20157;-65
2022/01/17 13:05:46;;;;;;;17.45;4.45;;;11.00;99.90;;;;;;5076225;28;20033;-66
2022/01/17 13:08:13;;;;;;;12.93;3.58;;;11.10;99.90;;;;;;5079896;28;20367;-64
2022/01/17 13:10:38;;;;;;;15.73;4.40;;;11.20;99.90;;;;;;5079862;28;20104;-64